Time;durP1;ratioP1;P1;durP2;ratioP2;P2;SDS_P1;SDS_P2;PMS_P1;PMS_P2;Temp;Humidity;BMP_temperature;BMP_pressure;BME280_temperature;BME280_humidity;BME280_pressure;Samples;Min_cycle;Max_cycle;Signal;HPM_P1;HPM_P2
2022/04/24 00:00:15;;;;;;;14.73;8.43;;;;;;;12.02;52.00;100251.94;5009134;28;20292;-71
2022/04/24 00:02:41;;;;;;;11.95;7.80;;;;;;;11.98;52.02;100253.84;5022546;28;20288;-71
2022/04/24 00:05:06;;;;;;;15.40;8.45;;;;;;;11.92;51.90;100240.25;5017269;28;20586;-71
2022/04/24 00:07:32;;;;;;;12.77;7.75;;;;;;;11.87;52.09;100248.22;5017730;28;20416;-71
2022/04/24 00:09:57;;;;;;;13.63;8.43;;;;;;;11.84;52.19;100245.72;5012618;28;20547;-71
2022/04/24 00:12:22;;;;;;;14.73;8.70;;;;;;;11.77;52.37;100244.28;5017957;28;20035;-71
2022/04/24 00:14:48;;;;;;;13.50;8.07;;;;;;;11.75;52.59;100243.47;5014417;28;20048;-71
2022/04/24 00:17:16;;;;;;;12.73;7.97;;;;;;;11.72;52.54;100251.38;5012216;28;20292;-70
2022/04/24 00:19:42;;;;;;;13.13;8.57;;;;;;;11.66;52.57;100236.88;5013925;28;20429;-71
2022/04/24 00:22:08;;;;;;;14.55;9.02;;;;;;;11.62;52.70;100232.69;5013325;28;20103;-71
2022/04/24 00:24:33;;;;;;;15.20;8.80;;;;;;;11.62;52.94;100235.28;5011942;28;20432;-71
2022/04/24 00:26:59;;;;;;;13.27;8.07;;;;;;;11.58;53.10;100232.88;5012733;28;20434;-71
2022/04/24 00:29:25;;;;;;;14.13;8.02;;;;;;;11.55;52.98;100238.16;5013013;28;20025;-71
2022/04/24 00:31:51;;;;;;;13.35;8.48;;;;;;;11.53;52.98;100229.59;5016458;28;20038;-71
2022/04/24 00:34:16;;;;;;;13.48;8.43;;;;;;;11.49;53.03;100234.03;5006310;28;20022;-71
2022/04/24 00:36:42;;;;;;;13.35;8.55;;;;;;;11.45;53.06;100222.94;5024712;28;20108;-71
2022/04/24 00:39:07;;;;;;;12.90;8.48;;;;;;;11.42;53.45;100225.63;5010567;28;20084;-71
2022/04/24 00:41:33;;;;;;;14.10;8.43;;;;;;;11.44;53.44;100225.59;5018354;28;20026;-71
2022/04/24 00:43:58;;;;;;;15.82;8.05;;;;;;;11.39;53.86;100224.91;5009719;28;20285;-71
2022/04/24 00:46:35;;;;;;;13.50;8.48;;;;;;;11.37;53.60;100221.53;5007895;28;20056;-71
2022/04/24 00:49:01;;;;;;;15.48;9.18;;;;;;;11.34;53.74;100219.88;5022156;28;20045;-71
2022/04/24 00:51:26;;;;;;;15.38;9.00;;;;;;;11.30;53.85;100215.72;5012367;28;20121;-71
2022/04/24 00:53:52;;;;;;;15.17;8.43;;;;;;;11.30;54.20;100209.69;5011287;28;20022;-71
2022/04/24 00:56:18;;;;;;;14.38;8.40;;;;;;;11.25;54.42;100209.88;5012556;28;20304;-71
2022/04/24 00:58:44;;;;;;;15.43;8.80;;;;;;;11.23;53.94;100216.84;5016299;28;20053;-71
2022/04/24 01:01:09;;;;;;;14.00;8.43;;;;;;;11.19;54.37;100220.44;5010319;28;20021;-71
2022/04/24 01:03:35;;;;;;;15.32;9.10;;;;;;;11.16;54.12;100212.78;5015556;28;20033;-71
2022/04/24 01:06:00;;;;;;;14.23;8.77;;;;;;;11.17;54.50;100219.66;5011860;28;20033;-71
2022/04/24 01:08:26;;;;;;;15.93;8.77;;;;;;;11.14;54.74;100227.53;5013613;28;20030;-71
2022/04/24 01:10:51;;;;;;;13.95;8.95;;;;;;;11.12;54.53;100223.34;5003580;28;20028;-71
2022/04/24 01:13:16;;;;;;;15.20;9.03;;;;;;;11.07;54.86;100221.72;5020107;28;20117;-71
2022/04/24 01:15:42;;;;;;;14.33;9.13;;;;;;;11.05;54.85;100220.09;5020940;28;20418;-71
2022/04/24 01:18:08;;;;;;;12.77;8.73;;;;;;;11.01;54.82;100221.94;5012393;28;20286;-71
2022/04/24 01:20:34;;;;;;;14.13;9.27;;;;;;;11.01;54.84;100226.28;5011584;28;20408;-71
2022/04/24 01:22:59;;;;;;;14.50;8.85;;;;;;;10.98;54.67;100227.25;5015837;28;20489;-71
2022/04/24 01:25:25;;;;;;;15.70;8.98;;;;;;;10.97;54.90;100219.53;5001198;28;20469;-71
2022/04/24 01:27:50;;;;;;;15.07;9.20;;;;;;;10.95;55.10;100221.31;5012058;28;20022;-71
2022/04/24 01:30:15;;;;;;;13.80;8.67;;;;;;;10.93;55.31;100223.97;5020828;28;20025;-71
2022/04/24 01:32:40;;;;;;;14.73;8.77;;;;;;;10.89;55.62;100227.56;5010662;28;20280;-71
2022/04/24 01:35:11;;;;;;;14.77;9.00;;;;;;;10.87;55.97;100228.50;5018514;28;20300;-71
2022/04/24 01:37:36;;;;;;;12.93;8.70;;;;;;;10.83;56.24;100227.78;5010645;28;20795;-71
2022/04/24 01:40:02;;;;;;;15.05;9.57;;;;;;;10.78;55.48;100221.06;5010483;28;20543;-71
2022/04/24 01:42:27;;;;;;;14.27;9.05;;;;;;;10.77;56.02;100230.59;5009119;28;20030;-71
2022/04/24 01:44:53;;;;;;;14.50;9.25;;;;;;;10.72;55.98;100229.88;5005826;28;20272;-73
2022/04/24 01:47:18;;;;;;;15.40;9.60;;;;;;;10.68;56.29;100234.34;5012526;28;20026;-71
2022/04/24 01:49:43;;;;;;;13.17;8.70;;;;;;;10.63;56.70;100223.28;5013957;28;20296;-71
2022/04/24 01:52:09;;;;;;;14.37;9.30;;;;;;;10.58;57.06;100229.50;5023068;28;20300;-71
2022/04/24 01:54:35;;;;;;;15.90;9.10;;;;;;;10.53;57.13;100228.81;5013410;28;20316;-71
2022/04/24 01:57:00;;;;;;;14.32;9.20;;;;;;;10.47;56.65;100224.69;5009074;28;20500;-71
2022/04/24 01:59:26;;;;;;;14.70;9.32;;;;;;;10.46;57.00;100233.34;5003162;28;20560;-71
2022/04/24 02:01:51;;;;;;;17.65;9.52;;;;;;;10.46;57.11;100223.00;5015944;28;20619;-71
2022/04/24 02:04:19;;;;;;;15.80;9.27;;;;;;;10.48;57.01;100230.72;5020844;28;20041;-70
2022/04/24 02:06:44;;;;;;;15.98;9.65;;;;;;;10.47;57.60;100224.69;5010593;28;20026;-71
2022/04/24 02:09:10;;;;;;;16.13;9.50;;;;;;;10.50;57.00;100219.41;5015920;28;20352;-71
2022/04/24 02:11:35;;;;;;;15.35;10.10;;;;;;;10.52;56.88;100233.16;5014553;28;20117;-71
2022/04/24 02:14:00;;;;;;;17.25;10.73;;;;;;;10.51;56.72;100225.41;5019237;28;20026;-71
2022/04/24 02:16:26;;;;;;;16.30;10.23;;;;;;;10.52;56.95;100229.72;5013359;28;20029;-71
2022/04/24 02:18:51;;;;;;;15.68;9.88;;;;;;;10.51;57.19;100228.00;5015130;28;20283;-81
2022/04/24 02:21:16;;;;;;;17.47;10.60;;;;;;;10.52;56.94;100230.56;5019088;28;20049;-81
2022/04/24 02:23:42;;;;;;;17.35;10.68;;;;;;;10.49;57.26;100235.00;5015357;28;20292;-80
2022/04/24 02:26:07;;;;;;;17.33;10.10;;;;;;;10.46;57.52;100230.75;5009378;28;20030;-80
2022/04/24 02:28:32;;;;;;;17.98;10.63;;;;;;;10.43;57.69;100232.63;5015035;28;20048;-80
2022/04/24 02:30:58;;;;;;;17.70;11.07;;;;;;;10.37;57.81;100222.47;5015672;28;20026;-80
2022/04/24 02:33:23;;;;;;;16.58;10.65;;;;;;;10.32;57.70;100227.78;5020167;28;20296;-81
2022/04/24 02:35:48;;;;;;;18.97;10.70;;;;;;;10.27;57.74;100225.34;5014330;28;20037;-80
2022/04/24 02:38:14;;;;;;;19.73;11.30;;;;;;;10.22;57.98;100229.84;5009493;28;20284;-80
2022/04/24 02:40:39;;;;;;;19.23;11.52;;;;;;;10.17;58.41;100225.66;5025400;28;20029;-81
2022/04/24 02:43:05;;;;;;;19.48;11.52;;;;;;;10.10;58.53;100229.34;5010318;28;20125;-80
2022/04/24 02:45:30;;;;;;;18.35;11.48;;;;;;;10.06;58.66;100235.50;5015611;28;20034;-80
2022/04/24 02:47:55;;;;;;;18.77;11.13;;;;;;;10.03;58.76;100233.84;5009962;28;20033;-80
2022/04/24 02:50:23;;;;;;;18.67;10.80;;;;;;;10.00;58.91;100236.53;5014271;28;20347;-81
2022/04/24 02:52:53;;;;;;;20.33;11.32;;;;;;;9.95;58.94;100238.44;5008654;28;20299;-81
2022/04/24 02:55:19;;;;;;;19.85;11.70;;;;;;;9.88;59.51;100230.00;5014317;28;20038;-81
2022/04/24 02:57:46;;;;;;;19.27;11.70;;;;;;;9.86;59.37;100238.72;5009187;28;20079;-79
2022/04/24 03:00:13;;;;;;;19.65;11.50;;;;;;;9.82;59.38;100240.56;5013058;28;20033;-80
2022/04/24 03:02:43;;;;;;;19.88;11.65;;;;;;;9.78;59.49;100243.25;5011996;28;20471;-80
2022/04/24 03:05:28;;;;;;;20.98;12.05;;;;;;;9.75;60.04;100243.38;5012231;28;20037;-80
2022/04/24 03:07:53;;;;;;;20.27;11.90;;;;;;;9.70;60.08;100240.06;5008726;28;20045;-80
2022/04/24 03:10:19;;;;;;;18.92;12.20;;;;;;;9.72;60.51;100243.44;5011913;28;20029;-81
2022/04/24 03:12:45;;;;;;;21.27;12.20;;;;;;;9.68;60.78;100240.13;5008958;28;20022;-81
2022/04/24 03:15:12;;;;;;;20.95;11.90;;;;;;;9.65;60.75;100239.34;5010930;28;20579;-81
2022/04/24 03:17:38;;;;;;;21.67;12.07;;;;;;;9.64;60.96;100235.06;5009964;28;20025;-81
2022/04/24 03:20:06;;;;;;;18.73;11.20;;;;;;;9.59;60.68;100235.19;5009027;28;20022;-71
2022/04/24 03:22:33;;;;;;;20.10;11.75;;;;;;;9.55;61.13;100237.94;5023940;28;20038;-71
2022/04/24 03:25:02;;;;;;;22.98;11.88;;;;;;;9.52;61.63;100244.03;5022602;28;20388;-71
2022/04/24 03:27:28;;;;;;;20.58;11.95;;;;;;;9.49;61.69;100244.09;5015469;28;20121;-71
2022/04/24 03:29:53;;;;;;;19.38;11.98;;;;;;;9.46;61.81;100239.91;5022946;28;20196;-71
2022/04/24 03:32:18;;;;;;;20.63;12.00;;;;;;;9.44;62.54;100243.41;5017471;28;20028;-71
2022/04/24 03:34:44;;;;;;;22.43;13.27;;;;;;;9.38;62.35;100247.03;5019245;28;20766;-71
2022/04/24 03:37:09;;;;;;;21.53;12.07;;;;;;;9.37;62.64;100239.28;5016143;28;20347;-70
2022/04/24 03:39:34;;;;;;;20.73;11.77;;;;;;;9.34;63.22;100242.84;5015129;28;20781;-71
2022/04/24 03:42:00;;;;;;;20.05;12.00;;;;;;;9.28;62.85;100239.56;5012518;28;20293;-71
2022/04/24 03:44:26;;;;;;;22.45;12.93;;;;;;;9.26;63.26;100243.94;5015441;28;20155;-71
2022/04/24 03:46:51;;;;;;;21.25;11.57;;;;;;;9.24;63.44;100249.13;5018950;28;20071;-71
2022/04/24 03:49:17;;;;;;;20.38;12.23;;;;;;;9.21;63.63;100246.63;5016185;28;20136;-80
2022/04/24 03:51:42;;;;;;;20.38;12.32;;;;;;;9.20;64.04;100249.28;5018142;28;20029;-80
2022/04/24 03:54:08;;;;;;;20.40;11.88;;;;;;;9.15;64.18;100236.47;5012523;28;20057;-81
2022/04/24 03:56:34;;;;;;;20.17;12.02;;;;;;;9.13;63.94;100240.00;5013360;28;20034;-81
2022/04/24 03:58:59;;;;;;;22.23;12.35;;;;;;;9.11;64.26;100237.44;5016578;28;20038;-80
2022/04/24 04:01:24;;;;;;;19.87;11.17;;;;;;;9.09;64.77;100239.22;5019470;28;20057;-80
2022/04/24 04:03:51;;;;;;;19.40;12.00;;;;;;;9.04;64.83;100238.50;5013242;28;20288;-80
2022/04/24 04:06:16;;;;;;;20.63;11.93;;;;;;;9.04;65.16;100238.50;5016707;28;20304;-80
2022/04/24 04:08:41;;;;;;;22.45;12.90;;;;;;;9.01;65.32;100239.41;5011894;28;20034;-80
2022/04/24 04:11:07;;;;;;;23.77;12.75;;;;;;;8.92;65.31;100228.50;5015271;28;20029;-80
2022/04/24 04:13:33;;;;;;;21.98;11.73;;;;;;;8.98;65.44;100239.53;5011662;28;20091;-80
2022/04/24 04:15:58;;;;;;;20.67;11.63;;;;;;;8.95;66.04;100236.16;5018320;28;20033;-80
2022/04/24 04:18:24;;;;;;;21.27;12.52;;;;;;;8.97;65.90;100239.56;5012917;28;20030;-81
2022/04/24 04:20:49;;;;;;;21.93;11.57;;;;;;;8.93;65.47;100235.38;5020284;28;20022;-81
2022/04/24 04:23:14;;;;;;;22.80;12.02;;;;;;;8.91;65.90;100234.56;5011810;28;20698;-80
2022/04/24 04:25:39;;;;;;;21.70;11.80;;;;;;;8.88;66.19;100243.22;5018985;28;20037;-80
2022/04/24 04:28:05;;;;;;;21.65;11.80;;;;;;;8.88;66.28;100248.38;5023374;28;20291;-80
2022/04/24 04:30:30;;;;;;;20.42;11.98;;;;;;;8.86;66.34;100246.75;5022738;28;20030;-80
2022/04/24 04:32:55;;;;;;;21.77;11.67;;;;;;;8.83;66.88;100250.25;5021805;28;20094;-81
2022/04/24 04:35:23;;;;;;;20.25;11.27;;;;;;;8.83;66.60;100252.00;5012598;28;20396;-80
2022/04/24 04:37:49;;;;;;;20.55;11.30;;;;;;;8.81;66.75;100253.75;5011343;28;20567;-80
2022/04/24 04:40:14;;;;;;;20.92;11.70;;;;;;;8.84;66.56;100253.69;5015882;28;20112;-81
2022/04/24 04:42:40;;;;;;;20.85;11.80;;;;;;;8.84;67.00;100271.78;5014971;28;20175;-81
2022/04/24 04:45:06;;;;;;;19.85;11.10;;;;;;;8.83;66.63;100268.34;5025478;28;20369;-81
2022/04/24 04:47:31;;;;;;;21.67;11.57;;;;;;;8.82;66.87;100261.47;5012761;28;20071;-80
2022/04/24 04:49:57;;;;;;;18.70;10.95;;;;;;;8.82;67.34;100260.63;5010981;28;20191;-71
2022/04/24 04:52:23;;;;;;;21.27;11.45;;;;;;;8.83;67.05;100270.06;5020324;28;20102;-71
2022/04/24 04:54:49;;;;;;;18.35;10.75;;;;;;;8.79;67.50;100256.41;5015403;28;20080;-71
2022/04/24 04:57:15;;;;;;;19.00;10.85;;;;;;;8.83;66.78;100270.94;5015793;28;20025;-71
2022/04/24 04:59:40;;;;;;;19.42;10.88;;;;;;;8.82;66.89;100270.97;5025572;28;20029;-71
2022/04/24 05:02:06;;;;;;;21.65;11.25;;;;;;;8.82;66.98;100270.97;5019976;28;20029;-71
2022/04/24 05:04:31;;;;;;;18.73;10.50;;;;;;;8.82;67.08;100276.97;5009774;28;20030;-71
2022/04/24 05:06:57;;;;;;;20.30;11.45;;;;;;;8.84;67.13;100282.97;5012451;28;20462;-71
2022/04/24 05:09:22;;;;;;;18.27;11.20;;;;;;;8.82;66.95;100282.16;5011799;28;20033;-71
2022/04/24 05:11:47;;;;;;;20.10;11.20;;;;;;;8.84;66.73;100284.69;5009868;28;20651;-71
2022/04/24 05:14:13;;;;;;;19.35;10.27;;;;;;;8.85;67.83;100291.56;5011422;28;20296;-71
2022/04/24 05:16:38;;;;;;;19.15;11.18;;;;;;;8.86;67.12;100296.72;5012058;28;20175;-71
2022/04/24 05:19:06;;;;;;;20.08;10.35;;;;;;;8.85;67.24;100299.31;5009928;28;20034;-71
2022/04/24 05:21:31;;;;;;;19.65;10.52;;;;;;;8.87;67.28;100300.97;5010523;28;20025;-71
2022/04/24 05:23:56;;;;;;;19.40;10.77;;;;;;;8.89;66.94;100298.34;5016474;28;20101;-71
2022/04/24 05:26:22;;;;;;;18.87;10.90;;;;;;;8.89;66.64;100308.69;5013579;28;20030;-71
2022/04/24 05:28:47;;;;;;;18.70;10.50;;;;;;;8.92;67.48;100306.03;5013794;28;20279;-71
2022/04/24 05:31:13;;;;;;;19.85;10.20;;;;;;;8.94;67.08;100309.44;5007244;28;20681;-71
2022/04/24 05:33:38;;;;;;;20.45;10.40;;;;;;;8.93;66.95;100308.59;5015258;28;20061;-71
2022/04/24 05:36:05;;;;;;;18.95;10.43;;;;;;;8.95;66.50;100311.97;5009335;28;20087;-71
2022/04/24 05:38:31;;;;;;;18.38;10.32;;;;;;;8.99;66.56;100312.75;5006303;28;20083;-71
2022/04/24 05:40:56;;;;;;;20.83;11.18;;;;;;;9.00;66.21;100317.03;5016706;28;20021;-71
2022/04/24 05:43:22;;;;;;;17.57;10.50;;;;;;;9.00;66.43;100307.53;5015053;28;20425;-71
2022/04/24 05:45:47;;;;;;;17.88;9.60;;;;;;;9.04;66.86;100316.06;5015539;28;20319;-71
2022/04/24 05:48:12;;;;;;;17.73;9.97;;;;;;;9.05;66.32;100312.59;5012289;28;20206;-71
2022/04/24 05:50:37;;;;;;;18.60;10.13;;;;;;;9.07;66.12;100319.41;5010023;28;20300;-71
2022/04/24 05:53:03;;;;;;;20.13;10.23;;;;;;;9.10;65.80;100319.31;5021154;28;20354;-71
2022/04/24 05:55:28;;;;;;;17.85;9.63;;;;;;;9.13;66.27;100321.00;5010509;28;20284;-71
2022/04/24 05:57:54;;;;;;;20.00;10.10;;;;;;;9.16;65.79;100320.91;5018637;28;20076;-70
2022/04/24 06:00:21;;;;;;;17.95;10.05;;;;;;;9.20;66.34;100317.34;5012202;28;20368;-71
2022/04/24 06:02:46;;;;;;;16.73;9.52;;;;;;;9.25;65.90;100323.25;5007919;28;20033;-71
2022/04/24 06:05:12;;;;;;;16.92;9.60;;;;;;;9.30;65.89;100329.13;5011050;28;20025;-71
2022/04/24 06:07:41;;;;;;;17.13;9.93;;;;;;;9.34;65.01;100323.00;5009053;28;20022;-71
2022/04/24 06:10:09;;;;;;;16.25;9.80;;;;;;;9.39;65.01;100322.88;5009615;28;20041;-71
2022/04/24 06:12:52;;;;;;;15.30;9.23;;;;;;;9.43;65.22;100330.50;5007278;28;20071;-71
2022/04/24 06:15:21;;;;;;;18.30;10.50;;;;;;;9.47;64.64;100329.56;5001250;28;20042;-71
2022/04/24 06:17:49;;;;;;;19.08;10.20;;;;;;;9.52;64.73;100327.69;4999377;28;20316;-71
2022/04/24 06:20:16;;;;;;;17.92;10.32;;;;;;;9.56;64.87;100330.16;5002141;28;20026;-71
2022/04/24 06:22:46;;;;;;;17.10;9.85;;;;;;;9.63;64.31;100337.72;5009361;28;20065;-71
2022/04/24 06:25:32;;;;;;;19.13;10.27;;;;;;;9.70;64.06;100330.63;5017008;28;20491;-71
2022/04/24 06:27:58;;;;;;;19.02;10.88;;;;;;;9.76;63.03;100327.84;5003047;28;20557;-71
2022/04/24 06:30:26;;;;;;;19.35;10.35;;;;;;;9.81;62.92;100321.69;5009323;28;20032;-71
2022/04/24 06:32:52;;;;;;;18.92;10.45;;;;;;;9.90;62.59;100323.13;5012875;28;20100;-71
2022/04/24 06:35:18;;;;;;;17.52;10.63;;;;;;;10.05;62.46;100330.47;5015401;28;20105;-71
2022/04/24 06:37:46;;;;;;;18.95;10.57;;;;;;;10.27;62.20;100336.72;5009774;28;20092;-71
2022/04/24 06:40:14;;;;;;;17.48;10.35;;;;;;;10.55;61.25;100334.13;5012416;28;20024;-71
2022/04/24 06:42:49;;;;;;;18.00;10.07;;;;;;;11.25;60.34;100334.38;5008354;28;20022;-71
2022/04/24 06:45:16;;;;;;;17.23;10.30;;;;;;;12.19;55.52;100338.75;5007748;28;20032;-71
2022/04/24 06:47:42;;;;;;;17.20;10.18;;;;;;;12.47;54.44;100329.88;5009261;28;20076;-71
2022/04/24 06:50:08;;;;;;;16.90;10.00;;;;;;;12.35;56.76;100330.34;5011164;28;20041;-71
2022/04/24 06:52:33;;;;;;;18.17;11.02;;;;;;;12.08;54.43;100338.28;5010310;28;20064;-71
2022/04/24 06:55:00;;;;;;;17.80;10.90;;;;;;;12.00;54.53;100340.34;5010585;28;20087;-71
2022/04/24 06:57:25;;;;;;;19.38;10.60;;;;;;;12.01;54.86;100336.00;5010280;28;20760;-71
2022/04/24 06:59:51;;;;;;;19.58;11.02;;;;;;;12.15;56.14;100344.09;5009600;28;20056;-80
2022/04/24 07:02:16;;;;;;;16.33;10.50;;;;;;;12.19;54.89;100348.28;5007088;28;20113;-79
2022/04/24 07:04:41;;;;;;;21.35;10.48;;;;;;;12.19;53.63;100350.88;5015135;28;20057;-78
2022/04/24 07:07:07;;;;;;;18.17;10.43;;;;;;;12.20;54.85;100340.44;5009314;28;20025;-76
2022/04/24 07:09:32;;;;;;;18.00;10.73;;;;;;;12.51;54.93;100334.88;5017574;28;20291;-75
2022/04/24 07:11:57;;;;;;;19.25;10.35;;;;;;;12.81;53.16;100343.22;5008525;28;20076;-76
2022/04/24 07:14:22;;;;;;;18.37;10.97;;;;;;;12.76;53.31;100341.72;5008686;28;20116;-75
2022/04/24 07:16:48;;;;;;;16.87;10.60;;;;;;;12.68;52.32;100349.81;5009756;28;20751;-76
2022/04/24 07:19:14;;;;;;;16.77;10.05;;;;;;;12.68;53.32;100343.78;5018363;28;20300;-76
2022/04/24 07:21:39;;;;;;;17.08;10.82;;;;;;;12.63;52.46;100346.53;5009591;28;20360;-76
2022/04/24 07:24:05;;;;;;;17.23;10.80;;;;;;;12.60;53.40;100352.72;5013570;28;20407;-75
2022/04/24 07:26:30;;;;;;;18.60;10.57;;;;;;;12.50;52.91;100355.72;5009998;28;20288;-75
2022/04/24 07:28:55;;;;;;;19.58;11.05;;;;;;;12.50;53.90;100346.19;5015967;28;20104;-76
2022/04/24 07:31:21;;;;;;;18.27;10.93;;;;;;;12.66;52.94;100356.81;5012743;28;20029;-76
2022/04/24 07:33:46;;;;;;;18.20;11.25;;;;;;;12.82;52.19;100363.13;5006506;28;20813;-75
2022/04/24 07:36:11;;;;;;;18.60;10.88;;;;;;;12.92;51.81;100358.38;5008773;28;20368;-75
2022/04/24 07:38:37;;;;;;;19.65;11.43;;;;;;;12.93;51.73;100362.66;5011627;28;20447;-88
2022/04/24 07:41:03;;;;;;;20.25;11.27;;;;;;;12.83;51.18;100351.78;5010637;28;20029;-88
2022/04/24 07:43:29;;;;;;;21.13;11.23;;;;;;;12.72;52.72;100353.97;5001655;28;20030;-90
2022/04/24 07:45:54;;;;;;;19.15;11.10;;;;;;;12.75;52.33;100359.06;5020358;28;20045;-89
2022/04/24 07:48:20;;;;;;;16.90;10.85;;;;;;;12.97;51.51;100356.41;5012228;28;20408;-90
2022/04/24 07:50:46;;;;;;;18.30;10.50;;;;;;;13.16;52.13;100357.41;5013078;28;20049;-89
2022/04/24 07:53:13;;;;;;;17.90;11.30;;;;;;;13.29;51.18;100355.13;5012950;28;20480;-91
2022/04/24 07:55:43;;;;;;;17.52;11.25;;;;;;;13.46;51.23;100352.63;5008498;28;20041;-90
2022/04/24 07:58:11;;;;;;;20.02;11.18;;;;;;;14.01;49.77;100352.78;5012398;28;20041;-91
2022/04/24 08:00:38;;;;;;;17.33;11.02;;;;;;;14.57;47.90;100350.16;5016179;28;20432;-89
2022/04/24 08:03:05;;;;;;;17.55;11.32;;;;;;;15.32;45.57;100362.97;5030980;28;20061;-83
2022/04/24 08:05:31;;;;;;;18.20;11.15;;;;;;;15.95;43.89;100342.25;5008643;28;20030;-89
2022/04/24 08:07:58;;;;;;;20.45;11.23;;;;;;;16.75;43.40;100356.09;5012690;28;20092;-82
2022/04/24 08:10:26;;;;;;;17.70;11.85;;;;;;;17.42;40.88;100356.56;5020829;28;20434;-81
2022/04/24 08:12:52;;;;;;;15.98;11.18;;;;;;;17.63;39.54;100355.31;5025889;28;20468;-81
2022/04/24 08:15:17;;;;;;;17.17;11.85;;;;;;;18.10;39.35;100365.50;5012746;28;20560;-82
2022/04/24 08:17:43;;;;;;;16.83;11.38;;;;;;;18.46;38.82;100360.56;5012706;28;20037;-82
2022/04/24 08:20:10;;;;;;;17.02;11.05;;;;;;;18.80;39.46;100358.41;5008879;28;20041;-79
2022/04/24 08:22:39;;;;;;;16.77;11.55;;;;;;;18.98;38.00;100364.22;5015332;28;20048;-83
2022/04/24 08:25:06;;;;;;;16.27;11.50;;;;;;;19.01;36.95;100364.88;5012199;28;20113;-87
2022/04/24 08:27:32;;;;;;;18.60;12.00;;;;;;;18.75;37.90;100353.47;5009523;28;20052;-79
2022/04/24 08:29:58;;;;;;;21.83;12.00;;;;;;;18.46;38.08;100357.09;5013424;28;20403;-77
2022/04/24 08:32:24;;;;;;;18.73;12.20;;;;;;;18.38;38.36;100365.44;5017136;28;20074;-78
2022/04/24 08:34:50;;;;;;;20.77;13.15;;;;;;;18.27;38.74;100357.41;5014648;28;20032;-77
2022/04/24 08:37:15;;;;;;;21.25;12.75;;;;;;;18.05;38.33;100372.81;5018133;28;20030;-77
2022/04/24 08:39:40;;;;;;;19.00;12.27;;;;;;;17.83;39.28;100368.03;5011162;28;20030;-77
2022/04/24 08:42:07;;;;;;;19.83;12.60;;;;;;;17.63;39.45;100365.78;5011575;28;20327;-78
2022/04/24 08:44:33;;;;;;;17.70;12.30;;;;;;;17.47;41.01;100367.63;5021215;28;20288;-77
2022/04/24 08:46:58;;;;;;;18.80;13.25;;;;;;;17.35;40.80;100363.94;5011508;28;20041;-78
2022/04/24 08:49:25;;;;;;;19.38;12.63;;;;;;;17.31;41.14;100373.78;5017963;28;20124;-79
2022/04/24 08:51:50;;;;;;;19.17;12.90;;;;;;;17.13;40.76;100358.28;5010422;28;20033;-78
2022/04/24 08:54:18;;;;;;;17.55;12.50;;;;;;;16.95;41.03;100368.91;5018636;28;20071;-77
2022/04/24 08:56:43;;;;;;;17.83;12.02;;;;;;;16.93;42.04;100372.53;5011738;28;20033;-79
2022/04/24 08:59:08;;;;;;;20.17;12.65;;;;;;;16.90;41.53;100376.19;5012044;28;20091;-79
2022/04/24 09:01:43;;;;;;;19.93;12.87;;;;;;;16.79;41.45;100385.56;5009911;28;20026;-80
2022/04/24 09:04:08;;;;;;;19.73;12.80;;;;;;;16.70;41.92;100373.00;5005583;28;20655;-78
2022/04/24 09:06:34;;;;;;;17.38;12.63;;;;;;;16.71;41.56;100372.06;5003139;28;20484;-79
2022/04/24 09:09:06;;;;;;;19.52;12.85;;;;;;;16.86;42.49;100379.03;5014788;28;20025;-78
2022/04/24 09:11:33;;;;;;;21.00;13.30;;;;;;;16.75;40.99;100373.56;5021042;28;20041;-79
2022/04/24 09:14:18;;;;;;;20.92;12.85;;;;;;;16.81;40.58;100375.84;5018362;28;20033;-78
2022/04/24 09:16:48;;;;;;;22.48;13.32;;;;;;;16.78;41.28;100386.50;5011407;28;20045;-79
2022/04/24 09:19:24;;;;;;;19.75;12.45;;;;;;;16.75;42.60;100376.19;5011029;28;20476;-78
2022/04/24 09:21:51;;;;;;;20.13;12.93;;;;;;;16.85;42.45;100380.00;5013407;28;20025;-78
2022/04/24 09:24:17;;;;;;;19.15;12.93;;;;;;;16.94;41.50;100382.91;5008686;28;20018;-77
2022/04/24 09:27:09;;;;;;;21.15;14.45;;;;;;;16.92;41.32;100383.94;5013731;28;20257;-77
2022/04/24 09:29:36;;;;;;;23.63;12.57;;;;;;;16.89;42.12;100379.72;5010671;28;20113;-77
2022/04/24 09:32:09;;;;;;;19.40;13.27;;;;;;;16.78;40.74;100382.13;5006402;28;20184;-78
2022/04/24 09:34:35;;;;;;;21.98;12.98;;;;;;;16.65;41.29;100385.50;5004648;28;20048;-78
2022/04/24 09:37:03;;;;;;;22.83;13.85;;;;;;;16.55;40.98;100379.91;5018107;28;20025;-78
2022/04/24 09:39:30;;;;;;;19.85;13.48;;;;;;;16.56;41.11;100386.84;5010196;28;20331;-79
2022/04/24 09:42:08;;;;;;;21.67;13.30;;;;;;;16.57;41.25;100388.53;5012558;28;20029;-80
2022/04/24 09:44:43;;;;;;;22.77;13.45;;;;;;;16.46;41.99;100383.88;5017326;28;20095;-79
2022/04/24 09:47:10;;;;;;;20.88;13.35;;;;;;;16.45;41.61;100379.56;5009136;28;20458;-80
2022/04/24 09:49:38;;;;;;;23.30;12.98;;;;;;;16.55;42.88;100388.59;5017800;28;20054;-81
2022/04/24 09:52:10;;;;;;;19.20;13.52;;;;;;;16.61;42.60;100389.22;5010016;28;20030;-80
2022/04/24 09:54:40;;;;;;;21.38;13.20;;;;;;;16.61;42.04;100381.34;5018043;28;20045;-81
2022/04/24 09:57:07;;;;;;;21.40;13.32;;;;;;;16.63;42.28;100376.91;5013847;28;20054;-80
2022/04/24 09:59:34;;;;;;;20.58;13.60;;;;;;;16.68;41.29;100380.09;5007484;28;20041;-80
2022/04/24 10:02:01;;;;;;;21.65;12.70;;;;;;;16.70;42.13;100383.47;5008108;28;20499;-80
2022/04/24 10:04:26;;;;;;;20.92;12.73;;;;;;;16.72;42.02;100377.19;5009987;28;20484;-80
2022/04/24 10:06:52;;;;;;;20.55;13.05;;;;;;;16.68;41.79;100375.69;5010369;28;20069;-80
2022/04/24 10:09:18;;;;;;;21.35;13.18;;;;;;;16.71;42.24;100390.41;5009270;28;20025;-76
2022/04/24 10:11:43;;;;;;;19.00;13.18;;;;;;;16.79;41.86;100382.94;5004776;28;20506;-77
2022/04/24 10:14:14;;;;;;;21.02;12.82;;;;;;;16.81;41.72;100387.16;5007928;28;20116;-77
2022/04/24 10:16:58;;;;;;;20.02;12.93;;;;;;;16.84;41.92;100388.78;5006287;28;20034;-77
2022/04/24 10:19:39;;;;;;;24.70;12.60;;;;;;;16.84;41.19;100396.63;5008167;28;20468;-77
2022/04/24 10:22:35;;;;;;;20.25;12.98;;;;;;;16.95;41.98;100384.59;5002514;28;20034;-74
2022/04/24 10:25:02;;;;;;;21.15;12.35;;;;;;;17.17;42.33;100386.00;5003995;28;20045;-77
2022/04/24 10:27:41;;;;;;;20.52;12.15;;;;;;;17.37;41.60;100377.81;5011901;28;20037;-78
2022/04/24 10:30:12;;;;;;;19.58;12.38;;;;;;;17.29;40.94;100373.00;5014279;28;20493;-78
2022/04/24 10:32:37;;;;;;;20.88;12.32;;;;;;;17.28;40.57;100387.03;5005211;28;20269;-78
2022/04/24 10:35:18;;;;;;;17.63;11.70;;;;;;;17.26;39.41;100380.22;5007436;28;20509;-77
2022/04/24 10:37:44;;;;;;;22.83;12.55;;;;;;;17.23;40.06;100365.53;5008252;28;20289;-78
2022/04/24 10:40:15;;;;;;;19.98;13.10;;;;;;;17.13;39.34;100389.69;5012487;28;20075;-82
2022/04/24 10:42:43;;;;;;;18.90;12.82;;;;;;;17.11;40.22;100389.81;5010494;28;20376;-82
2022/04/24 10:45:14;;;;;;;23.83;12.18;;;;;;;17.09;40.03;100380.34;5010914;28;20415;-81
2022/04/24 10:47:48;;;;;;;21.98;12.55;;;;;;;17.00;40.74;100389.56;5008981;28;20483;-82
2022/04/24 10:50:15;;;;;;;17.58;12.23;;;;;;;16.99;41.12;100393.13;5023801;28;20045;-83
2022/04/24 10:52:43;;;;;;;20.90;13.32;;;;;;;16.97;39.98;100392.38;5006414;28;20078;-80
2022/04/24 10:55:12;;;;;;;20.48;12.65;;;;;;;16.96;41.04;100391.53;5009299;28;20059;-73
2022/04/24 10:57:46;;;;;;;18.92;12.25;;;;;;;16.94;40.71;100382.91;5009528;28;20072;-73
2022/04/24 11:00:36;;;;;;;20.53;12.53;;;;;;;17.01;41.14;100387.78;5006282;28;20102;-73
2022/04/24 11:03:11;;;;;;;19.17;12.02;;;;;;;16.99;41.58;100387.88;5007101;28;20296;-73
2022/04/24 11:05:39;;;;;;;17.20;11.93;;;;;;;16.98;40.77;100386.22;5007632;28;20030;-74
2022/04/24 11:08:07;;;;;;;22.77;13.02;;;;;;;16.89;40.26;100381.50;5014756;28;20058;-73
2022/04/24 11:10:41;;;;;;;18.27;12.88;;;;;;;16.93;40.57;100383.00;5005603;28;20034;-71
2022/04/24 11:13:16;;;;;;;18.63;11.07;;;;;;;17.02;42.46;100385.09;5011486;28;20025;-71